Time;durP1;ratioP1;P1;durP2;ratioP2;P2;SDS_P1;SDS_P2;PMS_P1;PMS_P2;Temp;Humidity;BMP_temperature;BMP_pressure;BME280_temperature;BME280_humidity;BME280_pressure;Samples;Min_cycle;Max_cycle;Signal;HPM_P1;HPM_P2
2024/02/24 00:00:27;;;;;;;4.28;1.90;;;;;;;;;;5099543;28;20093;-55
2024/02/24 00:02:53;;;;;;;2.45;1.63;;;;;;;;;;5097477;28;20036;-54
2024/02/24 00:05:19;;;;;;;6.43;2.20;;;;;;;;;;5102061;28;20028;-56
2024/02/24 00:07:45;;;;;;;3.65;1.63;;;;;;;;;;5096894;28;20472;-53
2024/02/24 00:10:11;;;;;;;2.40;1.60;;;;;;;;;;5094492;28;20028;-55
2024/02/24 00:12:37;;;;;;;4.60;1.98;;;;;;;;;;5091660;28;20035;-55
2024/02/24 00:15:03;;;;;;;10.98;3.08;;;;;;;;;;5107134;28;20055;-55
2024/02/24 00:17:29;;;;;;;7.55;2.80;;;;;;;;;;5104316;28;20526;-54
2024/02/24 00:19:55;;;;;;;11.50;4.15;;;;;;;;;;5093724;28;20032;-53
2024/02/24 00:22:21;;;;;;;12.73;5.28;;;;;;;;;;5095684;28;20035;-54
2024/02/24 00:24:47;;;;;;;18.15;6.10;;;;;;;;;;5094574;28;20036;-55
2024/02/24 00:27:13;;;;;;;16.20;6.05;;;;;;;;;;5102161;28;20388;-56
2024/02/24 00:29:39;;;;;;;12.95;5.70;;;;;;;;;;5094637;28;20032;-57
2024/02/24 00:32:05;;;;;;;12.65;5.10;;;;;;;;;;5097316;28;20028;-57
2024/02/24 00:34:31;;;;;;;11.80;4.10;;;;;;;;;;5095796;28;20035;-56
2024/02/24 00:36:57;;;;;;;4.95;2.55;;;;;;;;;;5094208;28;20032;-56
2024/02/24 00:39:23;;;;;;;8.45;2.53;;;;;;;;;;5096989;28;20476;-56
2024/02/24 00:41:52;;;;;;;5.75;2.20;;;;;;;;;;5101127;28;20498;-57
2024/02/24 00:44:18;;;;;;;5.50;2.20;;;;;;;;;;5094516;28;20027;-56
2024/02/24 00:46:44;;;;;;;4.80;1.88;;;;;;;;;;5098413;28;20129;-56
2024/02/24 00:49:10;;;;;;;3.05;1.60;;;;;;;;;;5109495;28;20048;-56
2024/02/24 00:51:36;;;;;;;4.25;2.13;;;;;;;;;;5077500;28;20430;-57
2024/02/24 00:54:04;;;;;;;4.35;1.83;;;;;;;;;;5100721;28;20031;-56
2024/02/24 00:56:30;;;;;;;3.35;1.70;;;;;;;;;;5110936;28;20055;-56
2024/02/24 00:58:56;;;;;;;4.97;2.03;;;;;;;;;;5099940;28;20024;-56
2024/02/24 01:01:22;;;;;;;7.03;2.13;;;;;;;;;;5099351;28;20062;-56
2024/02/24 01:03:48;;;;;;;3.10;1.73;;;;;;;;;;5101530;28;20105;-56
2024/02/24 01:06:14;;;;;;;3.80;1.58;;;;;;;;;;5099882;28;20028;-57
2024/02/24 01:08:40;;;;;;;4.60;1.85;;;;;;;;;;5097532;28;20035;-56
2024/02/24 01:11:07;;;;;;;2.70;1.60;;;;;;;;;;5097767;28;20016;-56
2024/02/24 01:13:33;;;;;;;5.63;1.83;;;;;;;;;;5106550;28;20407;-56
2024/02/24 01:15:59;;;;;;;4.90;1.98;;;;;;;;;;5093312;28;20039;-56
2024/02/24 01:18:27;;;;;;;3.60;1.73;;;;;;;;;;5092000;28;20040;-56
2024/02/24 01:20:53;;;;;;;3.00;1.95;;;;;;;;;;5095550;28;20116;-56
2024/02/24 01:23:21;;;;;;;7.13;2.67;;;;;;;;;;5093128;28;20039;-57
2024/02/24 01:25:47;;;;;;;6.30;2.13;;;;;;;;;;5101672;28;20102;-57
2024/02/24 01:28:13;;;;;;;5.45;2.15;;;;;;;;;;5102744;28;20032;-56
2024/02/24 01:30:39;;;;;;;3.85;1.52;;;;;;;;;;5092968;28;20434;-56
2024/02/24 01:33:05;;;;;;;8.02;2.45;;;;;;;;;;5096536;28;20023;-56
2024/02/24 01:35:31;;;;;;;5.47;1.80;;;;;;;;;;5099548;28;20035;-56
2024/02/24 01:37:57;;;;;;;3.00;1.70;;;;;;;;;;5110690;28;20020;-59
2024/02/24 01:40:23;;;;;;;7.40;1.67;;;;;;;;;;5097071;28;20110;-58
2024/02/24 01:42:49;;;;;;;3.80;1.90;;;;;;;;;;5101307;28;20040;-59
2024/02/24 01:45:15;;;;;;;3.28;1.85;;;;;;;;;;5081194;28;20053;-58
2024/02/24 01:47:42;;;;;;;5.25;1.55;;;;;;;;;;5109420;28;20147;-54
2024/02/24 01:50:12;;;;;;;2.63;1.60;;;;;;;;;;5091495;28;20078;-53
2024/02/24 01:52:40;;;;;;;3.83;1.60;;;;;;;;;;5101098;28;20103;-55
2024/02/24 01:55:06;;;;;;;8.23;2.33;;;;;;;;;;5107715;28;20099;-55
2024/02/24 01:57:34;;;;;;;4.20;2.25;;;;;;;;;;5110494;28;20034;-56
2024/02/24 02:00:00;;;;;;;6.45;1.83;;;;;;;;;;5093574;28;20043;-54
2024/02/24 02:02:26;;;;;;;2.53;1.27;;;;;;;;;;5111248;28;20196;-55
2024/02/24 02:04:52;;;;;;;7.82;1.90;;;;;;;;;;5111411;28;20110;-53
2024/02/24 02:07:18;;;;;;;4.30;1.73;;;;;;;;;;5097955;28;20020;-53
2024/02/24 02:09:57;;;;;;;3.25;1.88;;;;;;;;;;5093374;28;20103;-53
2024/02/24 02:12:24;;;;;;;4.45;1.67;;;;;;;;;;5105205;28;20016;-54
2024/02/24 02:14:50;;;;;;;3.95;1.48;;;;;;;;;;5105927;28;20505;-53
2024/02/24 02:17:16;;;;;;;3.30;1.70;;;;;;;;;;5101448;28;20104;-55
2024/02/24 02:19:42;;;;;;;2.75;1.55;;;;;;;;;;5090987;28;20403;-56
2024/02/24 02:22:11;;;;;;;5.28;1.90;;;;;;;;;;5091922;28;20028;-53
2024/02/24 02:24:37;;;;;;;3.40;1.80;;;;;;;;;;5102160;28;20034;-54
2024/02/24 02:27:06;;;;;;;4.57;1.70;;;;;;;;;;5108338;28;20031;-55
2024/02/24 02:29:32;;;;;;;5.00;1.60;;;;;;;;;;5105056;28;20581;-54
2024/02/24 02:31:58;;;;;;;2.97;1.90;;;;;;;;;;5096773;28;20024;-53
2024/02/24 02:34:24;;;;;;;9.88;2.42;;;;;;;;;;5114854;28;20119;-55
2024/02/24 02:36:50;;;;;;;4.05;1.98;;;;;;;;;;5101750;28;20099;-54
2024/02/24 02:39:16;;;;;;;6.68;2.10;;;;;;;;;;5108426;28;20024;-52
2024/02/24 02:41:42;;;;;;;6.45;2.10;;;;;;;;;;5102691;28;20042;-55
2024/02/24 02:44:08;;;;;;;3.13;1.65;;;;;;;;;;5100766;28;20024;-55
2024/02/24 02:46:34;;;;;;;7.20;1.95;;;;;;;;;;5104474;28;20083;-56
2024/02/24 02:49:00;;;;;;;7.53;1.80;;;;;;;;;;5118636;28;20039;-56
2024/02/24 02:51:26;;;;;;;2.67;1.88;;;;;;;;;;5115841;28;20034;-55
2024/02/24 02:53:52;;;;;;;4.90;2.20;;;;;;;;;;5111711;28;20102;-56
2024/02/24 02:56:20;;;;;;;3.53;2.13;;;;;;;;;;5103796;28;20028;-56
2024/02/24 02:58:47;;;;;;;4.97;2.13;;;;;;;;;;5103593;28;20024;-58
2024/02/24 03:01:13;;;;;;;8.57;3.80;;;;;;;;;;5099599;28;20039;-55
2024/02/24 03:03:39;;;;;;;4.43;1.85;;;;;;;;;;5117018;28;20110;-54
2024/02/24 03:06:06;;;;;;;2.38;1.98;;;;;;;;;;5098845;28;20024;-57
2024/02/24 03:08:33;;;;;;;6.75;1.75;;;;;;;;;;5106489;28;20031;-58
2024/02/24 03:10:59;;;;;;;10.32;2.53;;;;;;;;;;5116496;28;20051;-59
2024/02/24 03:13:25;;;;;;;4.85;2.00;;;;;;;;;;5109822;28;20024;-58
2024/02/24 03:15:51;;;;;;;5.97;2.10;;;;;;;;;;5118768;28;20031;-58
2024/02/24 03:18:17;;;;;;;4.47;1.85;;;;;;;;;;5118466;28;20051;-58
2024/02/24 03:20:43;;;;;;;4.57;1.90;;;;;;;;;;5114734;28;20031;-57
2024/02/24 03:23:09;;;;;;;5.25;1.98;;;;;;;;;;5098331;28;20028;-58
2024/02/24 03:25:35;;;;;;;6.95;2.40;;;;;;;;;;5081064;28;20400;-58
2024/02/24 03:28:02;;;;;;;4.85;2.40;;;;;;;;;;5100477;28;20039;-59
2024/02/24 03:30:28;;;;;;;3.92;2.35;;;;;;;;;;5101106;28;20118;-58
2024/02/24 03:32:54;;;;;;;2.78;2.10;;;;;;;;;;5111402;28;20051;-58
2024/02/24 03:35:20;;;;;;;3.08;1.88;;;;;;;;;;5115028;28;20020;-58
2024/02/24 03:37:45;;;;;;;4.15;2.40;;;;;;;;;;5099051;28;20024;-56
2024/02/24 03:40:12;;;;;;;8.77;3.33;;;;;;;;;;5103753;28;20052;-57
2024/02/24 03:42:38;;;;;;;4.72;2.40;;;;;;;;;;5110490;28;20122;-58
2024/02/24 03:45:05;;;;;;;5.53;2.25;;;;;;;;;;5111146;28;20449;-58
2024/02/24 03:47:31;;;;;;;3.85;2.30;;;;;;;;;;5115261;28;20429;-57
2024/02/24 03:49:56;;;;;;;4.63;2.22;;;;;;;;;;5114562;28;20034;-58
2024/02/24 03:52:22;;;;;;;7.22;2.78;;;;;;;;;;5096915;28;20032;-58
2024/02/24 03:54:48;;;;;;;7.55;2.50;;;;;;;;;;5113744;28;20024;-58
2024/02/24 03:57:14;;;;;;;6.00;2.85;;;;;;;;;;5107314;28;20032;-56
2024/02/24 03:59:41;;;;;;;4.15;2.30;;;;;;;;;;5111547;28;20032;-56
2024/02/24 04:02:07;;;;;;;4.03;2.28;;;;;;;;;;5104854;28;20031;-56
2024/02/24 04:04:33;;;;;;;4.90;2.35;;;;;;;;;;5094797;28;20468;-56
2024/02/24 04:06:59;;;;;;;5.72;2.60;;;;;;;;;;5094911;28;20411;-56
2024/02/24 04:09:25;;;;;;;3.35;2.13;;;;;;;;;;5106137;28;20040;-56
2024/02/24 04:11:52;;;;;;;3.10;2.33;;;;;;;;;;5109834;28;20099;-55
2024/02/24 04:14:18;;;;;;;5.18;2.67;;;;;;;;;;5112421;28;20031;-56
2024/02/24 04:16:44;;;;;;;5.53;2.90;;;;;;;;;;5114329;28;20639;-56
2024/02/24 04:19:10;;;;;;;5.43;2.22;;;;;;;;;;5100919;28;20036;-56
2024/02/24 04:21:36;;;;;;;6.45;3.20;;;;;;;;;;5098688;28;20085;-56
2024/02/24 04:24:05;;;;;;;6.80;3.20;;;;;;;;;;5079498;28;20032;-56
2024/02/24 04:26:31;;;;;;;6.88;3.42;;;;;;;;;;5110244;28;20032;-56
2024/02/24 04:28:57;;;;;;;5.30;2.78;;;;;;;;;;5104629;28;20031;-56
2024/02/24 04:31:23;;;;;;;5.95;2.28;;;;;;;;;;5098131;28;20034;-56
2024/02/24 04:33:49;;;;;;;3.92;2.40;;;;;;;;;;5094696;28;20399;-55
2024/02/24 04:36:15;;;;;;;3.92;2.53;;;;;;;;;;5090777;28;20035;-55
2024/02/24 04:38:41;;;;;;;5.28;2.58;;;;;;;;;;5104291;28;20042;-56
2024/02/24 04:41:07;;;;;;;6.28;2.50;;;;;;;;;;5097817;28;20028;-56
2024/02/24 04:43:33;;;;;;;6.43;2.05;;;;;;;;;;5102233;28;20027;-56
2024/02/24 04:45:59;;;;;;;5.07;2.47;;;;;;;;;;5093856;28;20036;-56
2024/02/24 04:48:25;;;;;;;6.32;2.50;;;;;;;;;;5094178;28;20403;-55
2024/02/24 04:50:51;;;;;;;6.93;2.28;;;;;;;;;;5096301;28;20027;-56
2024/02/24 04:53:17;;;;;;;6.72;2.30;;;;;;;;;;5093449;28;20028;-56
2024/02/24 04:55:43;;;;;;;3.45;2.38;;;;;;;;;;5106590;28;20475;-56
2024/02/24 04:58:09;;;;;;;5.22;2.33;;;;;;;;;;5100877;28;20502;-56
2024/02/24 05:00:35;;;;;;;8.10;2.33;;;;;;;;;;5104189;28;20376;-56
2024/02/24 05:03:01;;;;;;;5.00;2.08;;;;;;;;;;5095696;28;20047;-56
2024/02/24 05:05:27;;;;;;;6.45;2.47;;;;;;;;;;5092861;28;20483;-56
2024/02/24 05:07:53;;;;;;;5.18;2.78;;;;;;;;;;5092923;28;20039;-56
2024/02/24 05:10:19;;;;;;;7.43;2.10;;;;;;;;;;5101545;28;20530;-56
2024/02/24 05:12:47;;;;;;;6.72;2.80;;;;;;;;;;5096388;28;20028;-55
2024/02/24 05:15:15;;;;;;;4.45;2.80;;;;;;;;;;5092539;28;20052;-56
2024/02/24 05:17:41;;;;;;;10.32;2.72;;;;;;;;;;5095218;28;20413;-57
2024/02/24 05:20:07;;;;;;;8.48;2.83;;;;;;;;;;5089366;28;20035;-57
2024/02/24 05:22:33;;;;;;;5.53;2.30;;;;;;;;;;5092832;28;20055;-57
2024/02/24 05:24:59;;;;;;;7.57;2.85;;;;;;;;;;5096024;28;20074;-59
2024/02/24 05:27:26;;;;;;;5.10;2.72;;;;;;;;;;5097567;28;20028;-58
2024/02/24 05:29:52;;;;;;;6.57;2.83;;;;;;;;;;5091474;28;20036;-57
2024/02/24 05:32:19;;;;;;;7.85;2.95;;;;;;;;;;5096815;28;20073;-56
2024/02/24 05:34:45;;;;;;;4.88;2.83;;;;;;;;;;5099593;28;20031;-57
2024/02/24 05:37:11;;;;;;;4.22;2.50;;;;;;;;;;5091115;28;20093;-58
2024/02/24 05:39:38;;;;;;;6.10;3.20;;;;;;;;;;5093459;28;20059;-56
2024/02/24 05:42:04;;;;;;;5.72;2.92;;;;;;;;;;5093562;28;20023;-57
2024/02/24 05:44:30;;;;;;;6.32;2.95;;;;;;;;;;5097317;28;20040;-57
2024/02/24 05:46:56;;;;;;;4.15;2.53;;;;;;;;;;5103033;28;20023;-57
2024/02/24 05:49:22;;;;;;;6.85;2.92;;;;;;;;;;5100932;28;20020;-57
2024/02/24 05:51:48;;;;;;;6.55;3.10;;;;;;;;;;5089613;28;20020;-56
2024/02/24 05:54:14;;;;;;;4.93;2.97;;;;;;;;;;5103503;28;20020;-57
2024/02/24 05:56:41;;;;;;;5.60;3.17;;;;;;;;;;5096628;28;20032;-57
2024/02/24 05:59:07;;;;;;;7.32;3.05;;;;;;;;;;5100498;28;20031;-57
2024/02/24 06:01:33;;;;;;;7.22;2.85;;;;;;;;;;5096506;28;20028;-57
2024/02/24 06:03:59;;;;;;;6.75;2.95;;;;;;;;;;5102998;28;20027;-57
2024/02/24 06:06:25;;;;;;;5.40;2.88;;;;;;;;;;5093856;28;20035;-56
2024/02/24 06:08:51;;;;;;;4.47;2.38;;;;;;;;;;5089216;28;20032;-57
2024/02/24 06:11:17;;;;;;;4.90;2.55;;;;;;;;;;5096279;28;20032;-56
2024/02/24 06:13:43;;;;;;;5.88;2.75;;;;;;;;;;5093558;28;20023;-57
2024/02/24 06:16:09;;;;;;;4.70;2.58;;;;;;;;;;5093378;28;20059;-57
2024/02/24 06:18:35;;;;;;;7.10;3.75;;;;;;;;;;5088682;28;20058;-57
2024/02/24 06:21:01;;;;;;;7.18;3.95;;;;;;;;;;5095022;28;20039;-57
2024/02/24 06:23:27;;;;;;;8.52;4.18;;;;;;;;;;5097845;28;20051;-57
2024/02/24 06:25:53;;;;;;;8.93;3.88;;;;;;;;;;5091199;28;20035;-58
2024/02/24 06:28:19;;;;;;;8.70;3.90;;;;;;;;;;5099836;28;20036;-56
2024/02/24 06:30:45;;;;;;;9.30;3.28;;;;;;;;;;5097331;28;20062;-55
2024/02/24 06:33:11;;;;;;;9.50;2.92;;;;;;;;;;5090226;28;20505;-56
2024/02/24 06:35:37;;;;;;;5.68;2.50;;;;;;;;;;5087354;28;20032;-56
2024/02/24 06:38:03;;;;;;;5.60;3.05;;;;;;;;;;5095833;28;20020;-56
2024/02/24 06:40:29;;;;;;;4.05;2.92;;;;;;;;;;5092348;28;20123;-56
2024/02/24 06:42:55;;;;;;;4.53;2.55;;;;;;;;;;5101119;28;20032;-56
2024/02/24 06:45:21;;;;;;;5.82;3.33;;;;;;;;;;5091618;28;20118;-56
2024/02/24 06:47:47;;;;;;;7.35;3.38;;;;;;;;;;5096343;28;20055;-55
2024/02/24 06:50:13;;;;;;;8.88;2.95;;;;;;;;;;5098191;28;20036;-56
2024/02/24 06:52:39;;;;;;;7.40;3.10;;;;;;;;;;5094628;28;20032;-56
2024/02/24 06:55:05;;;;;;;8.77;3.55;;;;;;;;;;5097571;28;20417;-56
2024/02/24 06:57:31;;;;;;;7.18;3.47;;;;;;;;;;5090814;28;20021;-55
2024/02/24 06:59:57;;;;;;;11.23;4.03;;;;;;;;;;5096289;28;20395;-56
2024/02/24 07:02:23;;;;;;;8.82;3.55;;;;;;;;;;5092942;28;20438;-56
2024/02/24 07:04:49;;;;;;;9.68;3.80;;;;;;;;;;5094698;28;20043;-56
2024/02/24 07:07:16;;;;;;;6.78;3.03;;;;;;;;;;5094330;28;20023;-56
2024/02/24 07:09:42;;;;;;;8.40;4.45;;;;;;;;;;5099912;28;20035;-56
2024/02/24 07:12:08;;;;;;;6.32;3.70;;;;;;;;;;5091535;28;20122;-55
2024/02/24 07:14:35;;;;;;;5.80;3.63;;;;;;;;;;5096166;28;20406;-56
2024/02/24 07:17:01;;;;;;;10.85;3.47;;;;;;;;;;5091807;28;20043;-56
2024/02/24 07:19:27;;;;;;;9.25;3.45;;;;;;;;;;5097324;28;20024;-56
2024/02/24 07:21:53;;;;;;;8.25;3.33;;;;;;;;;;5095288;28;20158;-56
2024/02/24 07:24:19;;;;;;;5.03;3.03;;;;;;;;;;5101759;28;20443;-55
2024/02/24 07:26:45;;;;;;;5.32;3.05;;;;;;;;;;5104681;28;20032;-58
2024/02/24 07:29:11;;;;;;;7.70;3.35;;;;;;;;;;5109520;28;20031;-59
2024/02/24 07:31:37;;;;;;;8.40;3.13;;;;;;;;;;5099155;28;20065;-60
2024/02/24 07:34:03;;;;;;;3.88;3.00;;;;;;;;;;5102990;28;20099;-58
2024/02/24 07:36:30;;;;;;;4.55;3.15;;;;;;;;;;5090500;28;20032;-58
2024/02/24 07:38:56;;;;;;;4.47;2.83;;;;;;;;;;5099593;28;20035;-59
2024/02/24 07:41:22;;;;;;;5.78;3.33;;;;;;;;;;5095410;28;20048;-59
2024/02/24 07:43:48;;;;;;;4.40;2.88;;;;;;;;;;5093686;28;20086;-58
2024/02/24 07:46:29;;;;;;;7.40;3.28;;;;;;;;;;5099688;28;20027;-59
2024/02/24 07:48:58;;;;;;;5.53;3.45;;;;;;;;;;5093989;28;20107;-59
2024/02/24 07:51:24;;;;;;;11.57;4.03;;;;;;;;;;5095575;28;20174;-59
2024/02/24 07:53:50;;;;;;;7.03;3.75;;;;;;;;;;5086314;28;20036;-58
2024/02/24 07:56:16;;;;;;;6.28;3.80;;;;;;;;;;5100831;28;20017;-58
2024/02/24 07:58:43;;;;;;;6.60;3.92;;;;;;;;;;5101355;28;20521;-58
2024/02/24 08:01:09;;;;;;;7.35;3.30;;;;;;;;;;5103629;28;20028;-58
2024/02/24 08:03:35;;;;;;;8.00;2.90;;;;;;;;;;5109526;28;20089;-58
2024/02/24 08:06:01;;;;;;;8.45;3.45;;;;;;;;;;5090560;28;20031;-59
2024/02/24 08:08:27;;;;;;;10.50;3.72;;;;;;;;;;5093267;28;20440;-59
2024/02/24 08:10:53;;;;;;;5.40;3.40;;;;;;;;;;5094193;28;20051;-58
2024/02/24 08:13:19;;;;;;;10.90;3.53;;;;;;;;;;5105961;28;20023;-58
2024/02/24 08:15:46;;;;;;;4.72;2.88;;;;;;;;;;5102836;28;20078;-59
2024/02/24 08:18:11;;;;;;;12.85;3.47;;;;;;;;;;5093313;28;20048;-58
2024/02/24 08:20:38;;;;;;;4.22;2.75;;;;;;;;;;5090644;28;20056;-59
2024/02/24 08:23:04;;;;;;;8.27;2.92;;;;;;;;;;5093064;28;20051;-59
2024/02/24 08:25:30;;;;;;;10.80;3.00;;;;;;;;;;5082144;28;20040;-58
2024/02/24 08:27:56;;;;;;;4.55;2.17;;;;;;;;;;5092663;28;20080;-59
2024/02/24 08:30:22;;;;;;;5.35;2.10;;;;;;;;;;5099816;28;20039;-58
2024/02/24 08:32:51;;;;;;;3.83;2.47;;;;;;;;;;5096185;28;20103;-58
2024/02/24 08:35:17;;;;;;;4.53;2.13;;;;;;;;;;5103307;28;20027;-59
2024/02/24 08:37:44;;;;;;;5.13;2.33;;;;;;;;;;5108400;28;20031;-59
2024/02/24 08:40:11;;;;;;;7.97;2.40;;;;;;;;;;5099815;28;20066;-57
2024/02/24 08:42:37;;;;;;;3.47;2.17;;;;;;;;;;5092797;28;20070;-59
2024/02/24 08:45:03;;;;;;;4.90;2.00;;;;;;;;;;5093395;28;20131;-59
2024/02/24 08:47:29;;;;;;;6.75;2.45;;;;;;;;;;5100763;28;20098;-56
2024/02/24 08:49:55;;;;;;;6.45;2.53;;;;;;;;;;5092114;28;20102;-56
2024/02/24 08:52:21;;;;;;;5.85;2.33;;;;;;;;;;5101346;28;20039;-56
2024/02/24 08:54:46;;;;;;;4.40;2.33;;;;;;;;;;5099630;28;20036;-56
2024/02/24 08:57:12;;;;;;;9.82;2.08;;;;;;;;;;5096856;28;20036;-56
2024/02/24 08:59:39;;;;;;;7.13;2.13;;;;;;;;;;5090172;28;20024;-56
2024/02/24 09:02:05;;;;;;;5.45;2.10;;;;;;;;;;5109531;28;20069;-56
2024/02/24 09:04:31;;;;;;;7.93;2.25;;;;;;;;;;5107954;28;20110;-56
2024/02/24 09:06:57;;;;;;;4.03;2.08;;;;;;;;;;5095585;28;20094;-56
2024/02/24 09:09:23;;;;;;;3.67;1.75;;;;;;;;;;5102260;28;20020;-56
2024/02/24 09:11:49;;;;;;;8.05;1.95;;;;;;;;;;5094134;28;20125;-56
2024/02/24 09:14:15;;;;;;;4.95;2.40;;;;;;;;;;5099680;28;20047;-56
2024/02/24 09:16:41;;;;;;;7.10;1.65;;;;;;;;;;5097651;28;20447;-57
2024/02/24 09:19:07;;;;;;;4.78;2.20;;;;;;;;;;5093308;28;20485;-56
2024/02/24 09:21:33;;;;;;;7.82;2.17;;;;;;;;;;5101910;28;20521;-56
2024/02/24 09:23:59;;;;;;;5.45;1.75;;;;;;;;;;5092277;28;20032;-56
2024/02/24 09:26:25;;;;;;;2.53;1.55;;;;;;;;;;5095151;28;20031;-56
2024/02/24 09:28:51;;;;;;;7.22;2.10;;;;;;;;;;5102674;28;20107;-57
2024/02/24 09:31:17;;;;;;;3.65;1.67;;;;;;;;;;5092250;28;20024;-56
2024/02/24 09:33:43;;;;;;;5.43;2.03;;;;;;;;;;5091558;28;20486;-57
2024/02/24 09:36:09;;;;;;;6.30;1.40;;;;;;;;;;5093208;28;20531;-59
2024/02/24 09:38:35;;;;;;;5.05;1.98;;;;;;;;;;5092362;28;20020;-57
2024/02/24 09:41:01;;;;;;;3.10;1.55;;;;;;;;;;5091376;28;20024;-57
2024/02/24 09:43:27;;;;;;;4.05;1.50;;;;;;;;;;5091545;28;20024;-57
2024/02/24 09:45:54;;;;;;;3.42;1.55;;;;;;;;;;5098109;28;20130;-57
2024/02/24 09:48:21;;;;;;;3.28;1.05;;;;;;;;;;5099258;28;20118;-58
2024/02/24 09:50:47;;;;;;;4.20;1.38;;;;;;;;;;5091024;28;20054;-56
2024/02/24 09:53:13;;;;;;;3.38;1.40;;;;;;;;;;5090866;28;20020;-58
2024/02/24 09:55:39;;;;;;;2.42;1.38;;;;;;;;;;5088264;28;20020;-58
2024/02/24 09:58:07;;;;;;;4.93;1.40;;;;;;;;;;5094882;28;20031;-57
2024/02/24 10:00:33;;;;;;;3.35;1.20;;;;;;;;;;5094064;28;20024;-57
2024/02/24 10:02:59;;;;;;;2.88;1.52;;;;;;;;;;5093665;28;20031;-57
2024/02/24 10:05:26;;;;;;;2.63;1.40;;;;;;;;;;5102750;28;20103;-57
2024/02/24 10:07:52;;;;;;;4.28;1.48;;;;;;;;;;5092210;28;20036;-57
2024/02/24 10:10:18;;;;;;;3.42;1.15;;;;;;;;;;5100636;28;20043;-57
2024/02/24 10:13:01;;;;;;;1.75;1.00;;;;;;;;;;5090771;28;20111;-57
2024/02/24 10:15:28;;;;;;;2.70;1.48;;;;;;;;;;5093609;28;20508;-57
2024/02/24 10:17:55;;;;;;;5.88;1.63;;;;;;;;;;5092970;28;20060;-57
2024/02/24 10:20:21;;;;;;;2.17;1.10;;;;;;;;;;5089217;28;20055;-57
2024/02/24 10:22:47;;;;;;;2.85;1.30;;;;;;;;;;5093174;28;20027;-57
2024/02/24 10:25:14;;;;;;;3.20;1.60;;;;;;;;;;5091458;28;20047;-58
2024/02/24 10:27:40;;;;;;;5.30;1.48;;;;;;;;;;5090957;28;20024;-57
2024/02/24 10:30:07;;;;;;;6.47;1.75;;;;;;;;;;5091644;28;20024;-58
2024/02/24 10:32:33;;;;;;;7.03;1.10;;;;;;;;;;5096040;28;20107;-57
2024/02/24 10:35:00;;;;;;;3.60;1.25;;;;;;;;;;5095801;28;20023;-57
2024/02/24 10:37:27;;;;;;;3.28;1.30;;;;;;;;;;5094096;28;20383;-57
2024/02/24 10:39:53;;;;;;;2.33;1.20;;;;;;;;;;5087446;28;20035;-57
2024/02/24 10:42:22;;;;;;;3.42;1.50;;;;;;;;;;5094666;28;20089;-57
2024/02/24 10:44:49;;;;;;;2.45;1.30;;;;;;;;;;5091349;28;20024;-58
2024/02/24 10:47:15;;;;;;;3.85;1.50;;;;;;;;;;5090411;28;20046;-58
2024/02/24 10:49:40;;;;;;;3.28;1.30;;;;;;;;;;5091091;28;20024;-58
2024/02/24 10:52:08;;;;;;;5.53;1.65;;;;;;;;;;5098937;28;20031;-57
2024/02/24 10:54:34;;;;;;;5.05;1.25;;;;;;;;;;5094747;28;20055;-57
2024/02/24 10:57:02;;;;;;;3.83;1.35;;;;;;;;;;5092084;28;20016;-53
2024/02/24 10:59:28;;;;;;;4.50;1.17;;;;;;;;;;5091964;28;20028;-54
2024/02/24 11:01:58;;;;;;;2.72;1.65;;;;;;;;;;5095548;28;20034;-54
2024/02/24 11:04:24;;;;;;;3.55;1.40;;;;;;;;;;5099964;28;20502;-53
2024/02/24 11:06:51;;;;;;;2.35;1.30;;;;;;;;;;5101153;28;20059;-58
2024/02/24 11:09:20;;;;;;;4.05;1.63;;;;;;;;;;5094972;28;20475;-59
2024/02/24 11:11:47;;;;;;;3.45;1.38;;;;;;;;;;5094062;28;20090;-58
2024/02/24 11:14:16;;;;;;;2.20;1.20;;;;;;;;;;5109147;28;20164;-59
2024/02/24 11:16:43;;;;;;;5.35;1.75;;;;;;;;;;5105568;28;20040;-58
2024/02/24 11:19:12;;;;;;;4.47;1.40;;;;;;;;;;5093594;28;20052;-59
2024/02/24 11:21:56;;;;;;;4.40;1.38;;;;;;;;;;5094794;28;20043;-58
2024/02/24 11:24:22;;;;;;;3.67;1.50;;;;;;;;;;5083440;28;20028;-57
2024/02/24 11:26:49;;;;;;;3.25;1.40;;;;;;;;;;5095616;28;20125;-58
2024/02/24 11:29:18;;;;;;;3.13;1.48;;;;;;;;;;5091773;28;20034;-58
2024/02/24 11:31:45;;;;;;;3.60;1.65;;;;;;;;;;5101461;28;20035;-58
2024/02/24 11:34:11;;;;;;;2.47;1.15;;;;;;;;;;5095223;28;20026;-58
2024/02/24 11:36:41;;;;;;;3.30;1.55;;;;;;;;;;5097998;28;20384;-59
2024/02/24 11:39:08;;;;;;;2.03;0.98;;;;;;;;;;5103170;28;20034;-58
2024/02/24 11:41:35;;;;;;;4.55;1.40;;;;;;;;;;5107394;28;20038;-59
2024/02/24 11:44:01;;;;;;;1.88;1.08;;;;;;;;;;5107143;28;20036;-58
2024/02/24 11:46:28;;;;;;;4.63;1.38;;;;;;;;;;5094023;28;20027;-57
2024/02/24 11:48:54;;;;;;;3.92;1.20;;;;;;;;;;5090966;28;20032;-59
2024/02/24 11:51:23;;;;;;;4.57;1.15;;;;;;;;;;5096439;28;20085;-58
2024/02/24 11:53:49;;;;;;;2.35;1.10;;;;;;;;;;5103454;28;20024;-59
2024/02/24 11:56:15;;;;;;;4.38;1.20;;;;;;;;;;5106605;28;20015;-59
2024/02/24 11:58:41;;;;;;;3.30;1.27;;;;;;;;;;5094233;28;20471;-58
2024/02/24 12:01:07;;;;;;;4.15;1.10;;;;;;;;;;5093615;28;20035;-59
2024/02/24 12:03:34;;;;;;;3.50;1.45;;;;;;;;;;5102501;28;20036;-59
2024/02/24 12:06:06;;;;;;;3.20;1.17;;;;;;;;;;5097731;28;20038;-59
2024/02/24 12:08:32;;;;;;;2.00;1.02;;;;;;;;;;5098051;28;20070;-59
2024/02/24 12:10:58;;;;;;;2.78;0.90;;;;;;;;;;5094912;28;20036;-61
2024/02/24 12:13:25;;;;;;;3.97;1.15;;;;;;;;;;5093558;28;20046;-60
2024/02/24 12:15:53;;;;;;;1.60;0.70;;;;;;;;;;5099231;28;20104;-60
2024/02/24 12:18:24;;;;;;;4.07;1.00;;;;;;;;;;5068302;28;20059;-60
2024/02/24 12:20:53;;;;;;;1.90;0.70;;;;;;;;;;5083077;28;20032;-60
2024/02/24 12:23:22;;;;;;;1.70;1.00;;;;;;;;;;5067395;28;20033;-59
2024/02/24 12:25:49;;;;;;;3.85;1.13;;;;;;;;;;5074084;28;20492;-60
2024/02/24 12:28:15;;;;;;;2.30;0.68;;;;;;;;;;5076110;28;20036;-60
2024/02/24 12:30:43;;;;;;;4.63;0.70;;;;;;;;;;5073548;28;20036;-60
2024/02/24 12:33:13;;;;;;;3.83;1.10;;;;;;;;;;5069892;28;20223;-61
2024/02/24 12:35:40;;;;;;;4.82;0.80;;;;;;;;;;5072954;28;20626;-60
2024/02/24 12:38:06;;;;;;;4.60;0.80;;;;;;;;;;5073115;28;20028;-60
2024/02/24 12:40:33;;;;;;;2.28;0.80;;;;;;;;;;5070979;28;20024;-61
2024/02/24 12:43:00;;;;;;;3.08;0.70;;;;;;;;;;5073050;28;20024;-61
2024/02/24 12:45:26;;;;;;;4.13;0.88;;;;;;;;;;5080176;28;20479;-61
2024/02/24 12:47:52;;;;;;;3.63;0.85;;;;;;;;;;5079240;28;20024;-61
2024/02/24 12:50:18;;;;;;;2.53;1.10;;;;;;;;;;5073964;28;20373;-60
2024/02/24 12:52:44;;;;;;;4.35;1.38;;;;;;;;;;5073840;28;20111;-59
2024/02/24 12:55:10;;;;;;;4.03;1.60;;;;;;;;;;5072542;28;20025;-60
2024/02/24 12:57:36;;;;;;;2.20;0.90;;;;;;;;;;5072711;28;20017;-60
2024/02/24 13:00:04;;;;;;;3.28;1.23;;;;;;;;;;5073051;28;20028;-60
2024/02/24 13:02:30;;;;;;;3.22;0.77;;;;;;;;;;5081737;28;20329;-59
2024/02/24 13:04:57;;;;;;;2.38;1.10;;;;;;;;;;5069533;28;20032;-59
2024/02/24 13:07:23;;;;;;;2.15;1.00;;;;;;;;;;5072174;28;20024;-60
2024/02/24 13:09:49;;;;;;;4.35;0.85;;;;;;;;;;5071952;28;20480;-59
2024/02/24 13:12:16;;;;;;;2.22;0.90;;;;;;;;;;5075274;28;20116;-59
2024/02/24 13:14:42;;;;;;;1.75;0.73;;;;;;;;;;5072234;28;20104;-59
2024/02/24 13:17:08;;;;;;;1.85;0.70;;;;;;;;;;5072256;28;20475;-59
2024/02/24 13:19:34;;;;;;;3.55;0.88;;;;;;;;;;5078087;28;20032;-58
2024/02/24 13:22:00;;;;;;;1.65;0.82;;;;;;;;;;5072347;28;20404;-59
2024/02/24 13:24:26;;;;;;;2.92;1.00;;;;;;;;;;5081312;28;20466;-59
2024/02/24 13:26:52;;;;;;;2.42;0.80;;;;;;;;;;5092343;28;20031;-59
2024/02/24 13:29:18;;;;;;;2.33;0.90;;;;;;;;;;5076520;28;20119;-59
2024/02/24 13:31:44;;;;;;;1.30;0.70;;;;;;;;;;5082504;28;20480;-58
2024/02/24 13:34:10;;;;;;;1.52;0.70;;;;;;;;;;5071832;28;20032;-58
2024/02/24 13:36:36;;;;;;;1.42;0.60;;;;;;;;;;5081975;28;20024;-57
2024/02/24 13:39:02;;;;;;;5.00;0.60;;;;;;;;;;5091583;28;20043;-58
2024/02/24 13:41:28;;;;;;;3.08;0.90;;;;;;;;;;5079021;28;20041;-58
2024/02/24 13:43:54;;;;;;;2.53;0.93;;;;;;;;;;5083937;28;20086;-58
2024/02/24 13:46:20;;;;;;;1.00;0.70;;;;;;;;;;5092081;28;20038;-57
2024/02/24 13:48:46;;;;;;;2.63;0.60;;;;;;;;;;5091224;28;20039;-57
2024/02/24 13:51:12;;;;;;;2.78;0.60;;;;;;;;;;5091990;28;20034;-58
2024/02/24 13:53:38;;;;;;;2.25;0.80;;;;;;;;;;5088824;28;20024;-58
2024/02/24 13:56:05;;;;;;;1.75;0.70;;;;;;;;;;5088814;28;20119;-58
2024/02/24 13:58:31;;;;;;;3.90;0.73;;;;;;;;;;5080689;28;20032;-58
2024/02/24 14:00:57;;;;;;;1.98;0.50;;;;;;;;;;5076548;28;20031;-58
2024/02/24 14:03:23;;;;;;;3.33;0.68;;;;;;;;;;5089939;28;20102;-58
2024/02/24 14:05:49;;;;;;;2.65;0.57;;;;;;;;;;5079281;28;20040;-58
2024/02/24 14:08:15;;;;;;;3.70;0.50;;;;;;;;;;5067067;28;20032;-57
2024/02/24 14:10:42;;;;;;;1.42;0.55;;;;;;;;;;5068074;28;20033;-58
2024/02/24 14:13:09;;;;;;;1.42;0.70;;;;;;;;;;5073749;28;20036;-58
2024/02/24 14:15:35;;;;;;;3.75;0.50;;;;;;;;;;5081573;28;20099;-57
2024/02/24 14:18:01;;;;;;;0.80;0.30;;;;;;;;;;5091391;28;20044;-58
2024/02/24 14:20:32;;;;;;;1.17;0.52;;;;;;;;;;5079646;28;20476;-58
2024/02/24 14:22:59;;;;;;;0.60;0.40;;;;;;;;;;5071264;28;20031;-58
2024/02/24 14:25:25;;;;;;;1.42;0.80;;;;;;;;;;5077923;28;20040;-58
2024/02/24 14:27:51;;;;;;;0.40;0.20;;;;;;;;;;5070763;28;20048;-57
2024/02/24 14:30:18;;;;;;;0.85;0.50;;;;;;;;;;5071100;28;20400;-59
2024/02/24 14:32:43;;;;;;;1.80;0.50;;;;;;;;;;5062522;28;20028;-59
2024/02/24 14:35:13;;;;;;;0.85;0.50;;;;;;;;;;5078089;28;20036;-60
2024/02/24 14:37:39;;;;;;;2.25;0.80;;;;;;;;;;5089624;28;20035;-55